createdAt,value
2019-06-20T00:01:07.207Z,17.50
2019-06-20T00:03:37.701Z,17.70
2019-06-20T00:06:07.228Z,17.60
2019-06-20T00:08:36.686Z,17.70
2019-06-20T00:11:06.204Z,17.60
2019-06-20T00:13:35.660Z,17.60
2019-06-20T00:16:05.911Z,17.50
2019-06-20T00:18:35.324Z,17.60
2019-06-20T00:21:04.700Z,17.40
2019-06-20T00:23:34.052Z,17.40
2019-06-20T00:26:03.454Z,17.40
2019-06-20T00:28:32.859Z,17.40
2019-06-20T00:31:02.235Z,17.50
2019-06-20T00:33:31.604Z,17.20
2019-06-20T00:36:01.034Z,17.20
2019-06-20T00:38:30.480Z,17.20
2019-06-20T00:40:59.883Z,17.40
2019-06-20T00:43:30.821Z,17.40
2019-06-20T00:46:00.256Z,17.40
2019-06-20T00:48:29.714Z,17.40
2019-06-20T00:50:59.095Z,17.30
2019-06-20T00:53:28.571Z,17.30
2019-06-20T00:55:57.927Z,17.30
2019-06-20T00:58:27.302Z,17.20
2019-06-20T01:00:57.870Z,17.20
2019-06-20T01:03:27.435Z,17.30
2019-06-20T01:05:56.730Z,17.20
2019-06-20T01:08:26.086Z,17.10
2019-06-20T01:10:55.547Z,17.10
2019-06-20T01:13:33.587Z,17.10
2019-06-20T01:15:56.091Z,17.20
2019-06-20T01:18:25.548Z,17.10
2019-06-20T01:20:54.912Z,17.20
2019-06-20T01:23:24.339Z,17.20
2019-06-20T01:25:53.724Z,17.30
2019-06-20T01:28:23.315Z,17.40
2019-06-20T01:30:52.684Z,17.40
2019-06-20T01:33:22.199Z,17.30
2019-06-20T01:35:51.572Z,17.40
2019-06-20T01:38:21.004Z,17.30
2019-06-20T01:40:50.402Z,17.40
2019-06-20T01:43:19.779Z,17.30
2019-06-20T01:45:49.160Z,17.40
2019-06-20T01:48:18.544Z,17.30
2019-06-20T01:50:48.057Z,17.20
2019-06-20T01:53:17.606Z,17.20
2019-06-20T01:55:48.168Z,17.20
2019-06-20T01:58:17.657Z,17.20
2019-06-20T02:00:49.224Z,17.30
2019-06-20T02:03:19.151Z,17.30
2019-06-20T02:05:48.668Z,17.40
2019-06-20T02:08:18.134Z,17.40
2019-06-20T02:10:47.687Z,17.40
2019-06-20T02:13:17.101Z,17.30
2019-06-20T02:15:46.504Z,17.30
2019-06-20T02:18:15.859Z,17.20
2019-06-20T02:20:48.720Z,17.20
2019-06-20T02:23:24.098Z,17.20
2019-06-20T02:25:54.076Z,17.20
2019-06-20T02:28:25.944Z,17.10
2019-06-20T02:30:55.478Z,17.10
2019-06-20T02:33:25.435Z,17.10
2019-06-20T02:35:54.887Z,17.10
2019-06-20T02:38:26.577Z,17.00
2019-06-20T02:40:55.935Z,17.00
2019-06-20T02:43:25.319Z,17.00
2019-06-20T02:45:54.841Z,17.10
2019-06-20T02:48:24.265Z,17.00
2019-06-20T02:50:53.643Z,17.00
2019-06-20T02:53:23.078Z,17.10
2019-06-20T02:55:52.454Z,17.20
2019-06-20T02:58:21.800Z,17.10
2019-06-20T03:00:58.716Z,17.00
2019-06-20T03:03:28.849Z,17.00
2019-06-20T03:05:58.901Z,17.00
2019-06-20T03:08:29.430Z,17.10
2019-06-20T03:10:58.851Z,17.20
2019-06-20T03:13:28.391Z,17.10
2019-06-20T03:15:57.793Z,17.10
2019-06-20T03:18:29.937Z,17.20
2019-06-20T03:20:59.458Z,17.00
2019-06-20T03:23:31.489Z,17.00
2019-06-20T03:26:01.048Z,17.00
2019-06-20T03:28:30.421Z,17.10
2019-06-20T03:31:00.312Z,17.10
2019-06-20T03:33:29.888Z,17.00
2019-06-20T03:35:59.263Z,17.10
2019-06-20T03:38:28.727Z,17.10
2019-06-20T03:40:58.086Z,17.10
2019-06-20T03:43:27.448Z,17.10
2019-06-20T03:45:56.977Z,17.10
2019-06-20T03:48:31.848Z,17.10
2019-06-20T03:51:01.462Z,17.10
2019-06-20T03:53:30.897Z,17.10
2019-06-20T03:56:00.264Z,17.10
2019-06-20T03:58:29.644Z,17.10
2019-06-20T04:00:59.050Z,17.10
2019-06-20T04:03:28.456Z,17.10
2019-06-20T04:05:57.910Z,17.10
2019-06-20T04:08:28.356Z,17.00
2019-06-20T04:10:57.710Z,17.10
2019-06-20T04:13:27.072Z,17.10
2019-06-20T04:15:56.430Z,17.10
2019-06-20T04:18:25.815Z,17.10
2019-06-20T04:20:55.978Z,17.20
2019-06-20T04:23:25.539Z,17.20
2019-06-20T04:25:55.098Z,17.20
2019-06-20T04:28:24.507Z,17.10
2019-06-20T04:30:53.859Z,17.10
2019-06-20T04:33:23.220Z,17.20
2019-06-20T04:35:52.764Z,17.20
2019-06-20T04:38:22.188Z,17.30
2019-06-20T04:40:51.717Z,17.30
2019-06-20T04:43:21.147Z,17.30
2019-06-20T04:45:52.153Z,17.30
2019-06-20T04:48:21.508Z,17.40
2019-06-20T04:50:50.922Z,17.40
2019-06-20T04:53:21.826Z,17.40
2019-06-20T04:55:52.809Z,17.50
2019-06-20T04:58:22.213Z,17.70
2019-06-20T05:00:51.677Z,17.50
2019-06-20T05:03:21.184Z,17.60
2019-06-20T05:05:50.541Z,17.40
2019-06-20T05:08:19.905Z,17.30
2019-06-20T05:10:49.268Z,17.20
2019-06-20T05:13:18.637Z,17.10
2019-06-20T05:15:52.682Z,17.10
2019-06-20T05:18:19.155Z,17.50
2019-06-20T05:20:48.514Z,18.00
2019-06-20T05:23:17.984Z,18.20
2019-06-20T05:25:47.353Z,18.60
2019-06-20T05:28:16.720Z,18.70
2019-06-20T05:30:47.209Z,18.70
2019-06-20T05:33:16.875Z,18.80
2019-06-20T05:35:46.282Z,19.80
2019-06-20T05:38:17.263Z,20.30
2019-06-20T05:40:48.124Z,20.40
2019-06-20T05:43:19.096Z,19.70
2019-06-20T05:45:48.898Z,19.70
2019-06-20T05:48:18.620Z,19.60
2019-06-20T05:50:48.629Z,19.20
2019-06-20T05:53:18.112Z,19.10
2019-06-20T05:55:47.513Z,19.00
2019-06-20T05:58:19.834Z,18.50
2019-06-20T06:00:49.617Z,18.40
2019-06-20T06:03:21.116Z,18.20
2019-06-20T06:05:51.134Z,18.00
2019-06-20T06:08:20.760Z,18.20
2019-06-20T06:10:50.193Z,18.30
2019-06-20T06:13:19.585Z,18.20
2019-06-20T06:15:49.072Z,18.50
2019-06-20T06:18:19.116Z,18.30
2019-06-20T06:20:48.787Z,18.20
2019-06-20T06:23:18.261Z,18.50
2019-06-20T06:25:47.665Z,19.70
2019-06-20T06:28:19.558Z,19.00
2019-06-20T06:30:48.929Z,18.70
2019-06-20T06:33:18.405Z,18.40
2019-06-20T06:35:47.800Z,18.10
2019-06-20T06:38:21.803Z,17.90
2019-06-20T06:40:47.899Z,17.80
2019-06-20T06:43:18.445Z,17.70
2019-06-20T06:45:47.866Z,17.70
2019-06-20T06:48:17.848Z,17.90
2019-06-20T06:50:47.233Z,18.20
2019-06-20T06:53:16.765Z,17.80
2019-06-20T06:55:46.217Z,17.90
2019-06-20T06:58:15.680Z,17.90
2019-06-20T07:00:46.136Z,17.70
2019-06-20T07:03:16.643Z,17.90
2019-06-20T07:05:46.032Z,18.10
2019-06-20T07:08:15.451Z,18.30
2019-06-20T07:10:45.066Z,18.40
2019-06-20T07:13:14.691Z,18.60
2019-06-20T07:15:44.828Z,18.70
2019-06-20T07:18:14.175Z,18.40
2019-06-20T07:20:43.730Z,18.70
2019-06-20T07:23:13.091Z,18.60
2019-06-20T07:25:42.471Z,18.70
2019-06-20T07:28:11.832Z,18.70
2019-06-20T07:30:43.751Z,19.10
2019-06-20T07:33:13.210Z,19.00
2019-06-20T07:35:42.707Z,19.10
2019-06-20T07:38:12.099Z,18.50
2019-06-20T07:40:41.587Z,18.60
2019-06-20T07:43:11.085Z,18.30
2019-06-20T07:45:40.441Z,18.30
2019-06-20T07:48:10.119Z,18.30
2019-06-20T07:50:39.563Z,18.40
2019-06-20T07:53:09.077Z,18.30
2019-06-20T07:55:38.448Z,18.10
2019-06-20T07:58:07.804Z,17.80
2019-06-20T08:00:37.270Z,18.10
2019-06-20T08:03:06.614Z,18.50
2019-06-20T08:05:36.042Z,18.70
2019-06-20T08:08:06.193Z,18.90
2019-06-20T08:10:35.623Z,18.50
2019-06-20T08:13:05.170Z,19.00
2019-06-20T08:15:34.623Z,18.80
2019-06-20T08:18:04.737Z,18.60
2019-06-20T08:20:34.270Z,19.00
2019-06-20T08:23:04.773Z,19.40
2019-06-20T08:25:34.493Z,19.70
2019-06-20T08:28:04.368Z,19.60
2019-06-20T08:30:35.600Z,19.10
2019-06-20T08:33:10.315Z,19.20
2019-06-20T08:35:36.497Z,19.30
2019-06-20T08:38:07.569Z,19.50
2019-06-20T08:40:38.909Z,19.30
2019-06-20T08:43:08.603Z,19.10
2019-06-20T08:45:39.408Z,18.90
2019-06-20T08:48:10.479Z,18.90
2019-06-20T08:50:41.289Z,18.40
2019-06-20T08:53:10.734Z,18.10
2019-06-20T08:55:40.224Z,18.40
2019-06-20T08:58:11.258Z,18.60
2019-06-20T09:00:42.421Z,18.50
2019-06-20T09:03:11.787Z,18.20
2019-06-20T09:05:41.366Z,18.40
2019-06-20T09:08:13.433Z,18.30
2019-06-20T09:10:43.153Z,18.30
2019-06-20T09:13:15.620Z,18.40
2019-06-20T09:15:45.226Z,18.50
2019-06-20T09:18:14.582Z,19.00
2019-06-20T09:20:43.934Z,19.50
2019-06-20T09:23:13.307Z,19.40
2019-06-20T09:25:42.696Z,19.30
2019-06-20T09:28:13.228Z,19.60
2019-06-20T09:30:42.768Z,19.60
2019-06-20T09:33:14.767Z,19.80
2019-06-20T09:35:44.104Z,20.10
2019-06-20T09:38:13.474Z,20.30
2019-06-20T09:40:42.874Z,20.40
2019-06-20T09:43:26.547Z,20.50
2019-06-20T09:45:43.321Z,20.50
2019-06-20T09:48:12.690Z,21.90
2019-06-20T09:50:42.127Z,23.10
2019-06-20T09:53:21.771Z,23.50
2019-06-20T09:55:51.806Z,23.60
2019-06-20T09:58:21.382Z,23.00
2019-06-20T10:00:52.858Z,23.00
2019-06-20T10:03:23.443Z,23.90
2019-06-20T10:05:52.804Z,23.50
2019-06-20T10:08:22.212Z,23.70
2019-06-20T10:10:52.404Z,24.80
2019-06-20T10:13:21.999Z,23.70
2019-06-20T10:15:51.592Z,23.50
2019-06-20T10:18:21.046Z,22.80
2019-06-20T10:20:51.174Z,22.60
2019-06-20T10:23:20.714Z,22.20
2019-06-20T10:25:51.485Z,22.10
2019-06-20T10:28:20.259Z,22.00
2019-06-20T10:30:49.595Z,22.00
2019-06-20T10:33:19.018Z,21.80
2019-06-20T10:35:48.527Z,21.00
2019-06-20T10:38:17.889Z,21.80
2019-06-20T10:40:47.978Z,22.90
2019-06-20T10:43:19.176Z,22.70
2019-06-20T10:45:49.449Z,22.60
2019-06-20T10:48:18.897Z,22.50
2019-06-20T10:50:49.807Z,22.80
2019-06-20T10:53:19.352Z,23.70
2019-06-20T10:55:49.035Z,23.20
2019-06-20T10:58:18.592Z,24.50
2019-06-20T11:00:48.361Z,24.10
2019-06-20T11:03:17.863Z,24.30
2019-06-20T11:05:48.155Z,25.00
2019-06-20T11:08:17.763Z,24.70
2019-06-20T11:10:47.279Z,23.90
2019-06-20T11:13:16.814Z,23.10
2019-06-20T11:15:46.262Z,23.10
2019-06-20T11:18:15.613Z,23.00
2019-06-20T11:20:45.047Z,23.50
2019-06-20T11:23:14.990Z,23.70
2019-06-20T11:25:44.486Z,23.90
2019-06-20T11:28:13.977Z,22.90
2019-06-20T11:30:58.194Z,22.40
2019-06-20T11:33:17.913Z,22.20
2019-06-20T11:35:47.979Z,22.00
2019-06-20T11:38:17.413Z,21.90
2019-06-20T11:40:48.112Z,22.00
2019-06-20T11:43:19.164Z,20.70
2019-06-20T11:45:48.540Z,20.70
2019-06-20T11:48:17.904Z,20.80
2019-06-20T11:50:47.325Z,21.00
2019-06-20T11:53:17.012Z,21.20
2019-06-20T11:55:48.190Z,22.00
2019-06-20T11:58:17.769Z,22.20
2019-06-20T12:01:02.658Z,22.40
2019-06-20T12:03:18.404Z,24.20
2019-06-20T12:05:48.000Z,23.40
2019-06-20T12:08:17.410Z,23.10
2019-06-20T12:10:49.381Z,23.80
2019-06-20T12:13:19.160Z,22.80
2019-06-20T12:15:49.026Z,23.10
2019-06-20T12:18:18.550Z,23.30
2019-06-20T12:20:48.797Z,23.70
2019-06-20T12:23:18.521Z,23.90
2019-06-20T12:25:48.807Z,23.80
2019-06-20T12:28:18.441Z,22.20
2019-06-20T12:30:48.352Z,22.20
2019-06-20T12:33:18.987Z,21.80
2019-06-20T12:35:48.707Z,22.40
2019-06-20T12:38:18.284Z,22.20
2019-06-20T12:40:47.701Z,23.10
2019-06-20T12:43:17.427Z,23.60
2019-06-20T12:45:47.414Z,25.00
2019-06-20T12:48:16.874Z,24.50
2019-06-20T12:50:47.579Z,22.90
2019-06-20T12:53:17.358Z,22.40
2019-06-20T12:55:47.548Z,23.30
2019-06-20T12:58:17.084Z,22.70
2019-06-20T13:00:46.626Z,24.30
2019-06-20T13:03:16.160Z,23.80
2019-06-20T13:05:47.087Z,24.70
2019-06-20T13:08:15.774Z,24.80
2019-06-20T13:10:46.166Z,25.70
2019-06-20T13:13:15.682Z,26.00
2019-06-20T13:15:46.948Z,25.20
2019-06-20T13:18:16.768Z,26.30
2019-06-20T13:20:46.523Z,25.30
2019-06-20T13:23:16.088Z,24.10
2019-06-20T13:25:46.763Z,23.70
2019-06-20T13:28:16.204Z,24.80
2019-06-20T13:30:49.876Z,25.00
2019-06-20T13:33:18.660Z,25.30
2019-06-20T13:35:48.757Z,25.10
2019-06-20T13:38:19.541Z,23.20
2019-06-20T13:40:49.704Z,24.10
2019-06-20T13:43:19.331Z,25.20
2019-06-20T13:45:49.875Z,25.60
2019-06-20T13:48:19.763Z,25.80
2019-06-20T13:50:49.688Z,25.30
2019-06-20T13:53:19.433Z,25.80
2019-06-20T13:55:50.347Z,25.00
2019-06-20T13:58:19.901Z,25.90
2019-06-20T14:00:50.916Z,25.20
2019-06-20T14:03:21.354Z,25.80
2019-06-20T14:05:51.730Z,26.10
2019-06-20T14:08:21.369Z,26.60
2019-06-20T14:10:54.384Z,27.00
2019-06-20T14:13:24.224Z,26.20
2019-06-20T14:15:56.349Z,26.30
2019-06-20T14:18:25.811Z,25.20
2019-06-20T14:20:55.293Z,24.50
2019-06-20T14:23:24.815Z,23.80
2019-06-20T14:25:54.287Z,24.10
2019-06-20T14:28:25.846Z,24.30
2019-06-20T14:30:55.217Z,24.00
2019-06-20T14:33:24.749Z,23.70
2019-06-20T14:35:54.767Z,23.80
2019-06-20T14:38:25.379Z,25.50
2019-06-20T14:40:54.784Z,26.60
2019-06-20T14:43:24.246Z,25.70
2019-06-20T14:45:53.617Z,25.10
2019-06-20T14:48:23.061Z,24.60
2019-06-20T14:50:53.415Z,25.40
2019-06-20T14:53:22.955Z,25.20
2019-06-20T14:55:52.298Z,24.90
2019-06-20T14:58:21.821Z,25.10
2019-06-20T15:00:52.121Z,24.70
2019-06-20T15:03:21.696Z,24.80
2019-06-20T15:05:52.749Z,25.20
2019-06-20T15:08:22.139Z,25.30
2019-06-20T15:10:51.878Z,24.80
2019-06-20T15:13:21.399Z,24.90
2019-06-20T15:15:51.093Z,24.40
2019-06-20T15:18:21.096Z,24.10
2019-06-20T15:20:51.876Z,24.40
2019-06-20T15:23:21.713Z,23.90
2019-06-20T15:25:54.260Z,22.70
2019-06-20T15:28:23.807Z,22.40
2019-06-20T15:30:53.179Z,23.10
2019-06-20T15:33:22.534Z,23.10
2019-06-20T15:35:53.430Z,22.60
2019-06-20T15:38:23.117Z,21.90
2019-06-20T15:40:53.439Z,22.00
2019-06-20T15:43:22.876Z,23.30
2019-06-20T15:45:53.736Z,23.40
2019-06-20T15:48:23.263Z,22.10
2019-06-20T15:50:52.703Z,22.30
2019-06-20T15:53:22.119Z,22.70
2019-06-20T15:55:51.547Z,22.70
2019-06-20T15:58:21.362Z,22.20
2019-06-20T16:00:51.009Z,22.50
2019-06-20T16:03:20.502Z,23.00
2019-06-20T16:05:49.874Z,22.20
2019-06-20T16:08:19.299Z,22.10
2019-06-20T16:10:48.681Z,21.90
2019-06-20T16:13:18.034Z,22.10
2019-06-20T16:15:47.534Z,22.40
2019-06-20T16:18:17.077Z,22.10
2019-06-20T16:20:46.579Z,22.40
2019-06-20T16:23:16.103Z,22.60
2019-06-20T16:25:45.636Z,22.50
2019-06-20T16:28:15.001Z,22.00
2019-06-20T16:30:45.415Z,22.10
2019-06-20T16:33:24.642Z,21.80
2019-06-20T16:35:46.867Z,21.90
2019-06-20T16:38:16.293Z,22.20
2019-06-20T16:40:47.840Z,22.00
2019-06-20T16:43:17.384Z,21.90
2019-06-20T16:45:48.543Z,22.00
2019-06-20T16:48:17.946Z,22.70
2019-06-20T16:50:47.293Z,22.80
2019-06-20T16:53:16.782Z,22.70
2019-06-20T16:55:46.274Z,22.40
2019-06-20T16:58:15.688Z,22.70
2019-06-20T17:00:45.140Z,23.10
2019-06-20T17:03:15.317Z,22.60
2019-06-20T17:05:45.026Z,23.60
2019-06-20T17:08:14.693Z,23.70
2019-06-20T17:10:44.065Z,23.50
2019-06-20T17:13:13.485Z,22.30
2019-06-20T17:15:42.939Z,22.90
2019-06-20T17:18:12.318Z,23.20
2019-06-20T17:20:41.769Z,22.60
2019-06-20T17:23:11.361Z,22.60
2019-06-20T17:25:40.836Z,22.00
2019-06-20T17:28:10.300Z,21.60
2019-06-20T17:30:39.870Z,22.10
2019-06-20T17:33:15.055Z,22.30
2019-06-20T17:35:44.502Z,22.20
2019-06-20T17:38:14.049Z,22.30
2019-06-20T17:40:43.752Z,21.40
2019-06-20T17:43:13.203Z,21.50
2019-06-20T17:45:42.742Z,21.50
2019-06-20T17:48:12.159Z,21.30
2019-06-20T17:50:41.776Z,21.10
2019-06-20T17:53:11.195Z,20.80
2019-06-20T17:55:42.231Z,20.80
2019-06-20T17:58:11.607Z,20.70
2019-06-20T18:00:42.513Z,20.50
2019-06-20T18:03:11.888Z,20.40
2019-06-20T18:05:41.679Z,20.50
2019-06-20T18:08:15.178Z,20.60
2019-06-20T18:10:42.184Z,20.60
2019-06-20T18:13:11.535Z,20.30
2019-06-20T18:15:40.916Z,20.40
2019-06-20T18:18:12.074Z,20.10
2019-06-20T18:20:43.195Z,19.80
2019-06-20T18:23:12.624Z,19.90
2019-06-20T18:25:41.998Z,19.80
2019-06-20T18:28:11.351Z,19.90
2019-06-20T18:30:42.587Z,19.50
2019-06-20T18:33:12.238Z,19.60
2019-06-20T18:35:42.815Z,19.60
2019-06-20T18:38:12.401Z,19.40
2019-06-20T18:40:43.400Z,19.50
2019-06-20T18:43:12.944Z,19.60
2019-06-20T18:45:42.386Z,19.40
2019-06-20T18:48:11.818Z,19.20
2019-06-20T18:50:42.913Z,19.10
2019-06-20T18:53:12.277Z,19.10
2019-06-20T18:55:46.012Z,19.20
2019-06-20T18:58:15.391Z,19.10
2019-06-20T19:00:44.763Z,19.00
2019-06-20T19:03:14.175Z,18.80
2019-06-20T19:05:43.617Z,18.90
2019-06-20T19:08:13.791Z,18.80
2019-06-20T19:10:46.133Z,18.90
2019-06-20T19:13:15.630Z,18.80
2019-06-20T19:15:45.067Z,18.60
2019-06-20T19:18:14.487Z,18.60
2019-06-20T19:20:43.977Z,18.40
2019-06-20T19:23:13.352Z,18.50
2019-06-20T19:25:42.924Z,18.50
2019-06-20T19:28:12.429Z,18.30
2019-06-20T19:30:47.996Z,18.30
2019-06-20T19:33:17.508Z,18.40
2019-06-20T19:35:47.347Z,18.50
2019-06-20T19:38:16.860Z,18.50
2019-06-20T19:40:48.299Z,18.30
2019-06-20T19:43:17.758Z,18.30
2019-06-20T19:45:47.295Z,18.10
2019-06-20T19:48:16.967Z,17.90
2019-06-20T19:50:46.420Z,17.80
2019-06-20T19:53:15.869Z,17.80
2019-06-20T19:55:45.421Z,17.80
2019-06-20T19:58:14.935Z,17.70
2019-06-20T20:00:46.933Z,17.70
2019-06-20T20:03:16.440Z,17.60
2019-06-20T20:05:46.013Z,17.70
2019-06-20T20:08:15.492Z,17.60
2019-06-20T20:10:47.466Z,17.60
2019-06-20T20:13:17.812Z,17.50
2019-06-20T20:15:47.828Z,17.50
2019-06-20T20:18:21.323Z,17.50
2019-06-20T20:20:54.280Z,17.40
2019-06-20T20:23:23.166Z,17.40
2019-06-20T20:25:54.100Z,17.20
2019-06-20T20:28:31.335Z,17.20
2019-06-20T20:31:00.763Z,17.20
2019-06-20T20:33:30.155Z,17.20
2019-06-20T20:36:01.891Z,17.10
2019-06-20T20:38:30.768Z,17.10
2019-06-20T20:41:00.155Z,17.00
2019-06-20T20:43:29.552Z,17.00
2019-06-20T20:45:58.965Z,16.90
2019-06-20T20:48:28.367Z,16.80
2019-06-20T20:50:57.726Z,16.70
2019-06-20T20:53:27.109Z,16.80
2019-06-20T20:55:56.553Z,16.80
2019-06-20T20:58:27.083Z,16.60
2019-06-20T21:01:02.481Z,16.50
2019-06-20T21:03:31.960Z,16.50
2019-06-20T21:06:01.320Z,16.60
2019-06-20T21:08:32.859Z,16.50
2019-06-20T21:11:01.735Z,16.50
2019-06-20T21:13:31.189Z,16.50
2019-06-20T21:16:00.558Z,16.40
2019-06-20T21:18:29.918Z,16.30
2019-06-20T21:20:59.353Z,16.30
2019-06-20T21:23:28.711Z,16.10
2019-06-20T21:26:00.887Z,16.20
2019-06-20T21:28:30.280Z,16.20
2019-06-20T21:30:59.640Z,16.10
2019-06-20T21:33:29.113Z,16.20
2019-06-20T21:36:08.448Z,16.20
2019-06-20T21:38:29.629Z,16.20
2019-06-20T21:40:59.081Z,16.10
2019-06-20T21:43:28.435Z,16.20
2019-06-20T21:45:59.669Z,16.20
2019-06-20T21:48:29.127Z,16.10
2019-06-20T21:50:58.559Z,16.10
2019-06-20T21:53:27.994Z,16.00
2019-06-20T21:55:57.414Z,16.00
2019-06-20T21:58:26.799Z,16.00
2019-06-20T22:00:59.602Z,16.00
2019-06-20T22:03:30.705Z,15.90
2019-06-20T22:06:00.121Z,15.90
2019-06-20T22:08:29.541Z,15.80
2019-06-20T22:11:01.500Z,15.80
2019-06-20T22:13:31.031Z,15.80
2019-06-20T22:16:00.476Z,15.80
2019-06-20T22:18:29.891Z,15.70
2019-06-20T22:21:00.120Z,15.60
2019-06-20T22:23:29.539Z,15.60
2019-06-20T22:25:59.072Z,15.60
2019-06-20T22:28:28.568Z,15.60
2019-06-20T22:30:58.121Z,15.50
2019-06-20T22:33:27.501Z,15.50
2019-06-20T22:35:56.942Z,15.50
2019-06-20T22:38:27.546Z,15.40
2019-06-20T22:40:56.982Z,15.40
2019-06-20T22:43:26.368Z,15.30
2019-06-20T22:45:55.828Z,15.30
2019-06-20T22:48:25.202Z,15.30
2019-06-20T22:50:54.567Z,15.20
2019-06-20T22:53:24.155Z,15.20
2019-06-20T22:55:54.381Z,15.20
2019-06-20T22:58:23.768Z,15.10
2019-06-20T23:00:53.179Z,15.10
2019-06-20T23:03:22.613Z,15.10
2019-06-20T23:05:52.039Z,15.00
2019-06-20T23:08:21.459Z,15.00
2019-06-20T23:10:50.877Z,15.00
2019-06-20T23:13:20.235Z,14.90
2019-06-20T23:15:49.630Z,14.90
2019-06-20T23:18:20.078Z,14.90
2019-06-20T23:21:04.025Z,14.90
2019-06-20T23:23:20.587Z,14.90
2019-06-20T23:25:52.572Z,14.80
2019-06-20T23:28:21.984Z,14.80
2019-06-20T23:30:51.661Z,14.70
2019-06-20T23:33:21.027Z,14.70
2019-06-20T23:35:50.370Z,14.70
2019-06-20T23:38:19.706Z,14.60
2019-06-20T23:40:51.591Z,14.60
2019-06-20T23:43:20.957Z,14.50
2019-06-20T23:45:50.387Z,14.50
2019-06-20T23:48:19.768Z,14.60
2019-06-20T23:50:50.713Z,14.40
2019-06-20T23:53:21.736Z,14.40
2019-06-20T23:55:51.245Z,14.40
2019-06-20T23:58:20.743Z,14.40
